Time;durP1;ratioP1;P1;durP2;ratioP2;P2;SDS_P1;SDS_P2;PMS_P1;PMS_P2;Temp;Humidity;BMP_temperature;BMP_pressure;BME280_temperature;BME280_humidity;BME280_pressure;Samples;Min_cycle;Max_cycle;Signal;HPM_P1;HPM_P2
2022/09/24 00:01:25;;;;;;;10.07;8.80;;;13.70;99.90;;;;;;5092850;28;20490;-57
2022/09/24 00:03:54;;;;;;;9.20;8.40;;;13.70;99.90;;;;;;5094833;28;20863;-57
2022/09/24 00:06:22;;;;;;;11.70;8.80;;;13.80;99.90;;;;;;5090309;28;20530;-57
2022/09/24 00:08:53;;;;;;;11.60;9.23;;;13.80;99.90;;;;;;5091540;28;20447;-57
2022/09/24 00:11:20;;;;;;;9.47;8.57;;;13.70;99.90;;;;;;5089019;28;20463;-57
2022/09/24 00:13:50;;;;;;;10.47;9.43;;;13.60;99.90;;;;;;5090959;28;20466;-57
2022/09/24 00:16:19;;;;;;;9.60;8.70;;;13.50;99.90;;;;;;5091477;28;20443;-57
2022/09/24 00:18:46;;;;;;;10.33;8.83;;;13.50;99.90;;;;;;5103934;28;20533;-57
2022/09/24 00:21:18;;;;;;;9.87;8.97;;;13.50;99.90;;;;;;5090879;28;20830;-57
2022/09/24 00:23:49;;;;;;;10.13;9.13;;;13.60;99.90;;;;;;5091301;28;20569;-57
2022/09/24 00:29:03;;;;;;;9.50;8.50;;;13.60;99.90;;;;;;5092270;28;20934;-57
2022/09/24 00:31:31;;;;;;;10.23;9.30;;;13.50;99.90;;;;;;5094213;28;21031;-57
2022/09/24 00:33:59;;;;;;;11.03;9.63;;;13.50;99.90;;;;;;5104251;28;20510;-57
2022/09/24 00:36:27;;;;;;;11.37;9.30;;;13.50;99.90;;;;;;5114920;28;20801;-57
2022/09/24 00:38:56;;;;;;;14.07;8.87;;;13.50;99.90;;;;;;5114166;28;20442;-57
2022/09/24 00:41:26;;;;;;;10.67;9.33;;;13.50;99.90;;;;;;5112278;28;20482;-57
2022/09/24 00:43:53;;;;;;;10.10;9.30;;;13.50;99.90;;;;;;5114883;28;20450;-57
2022/09/24 00:46:26;;;;;;;12.03;8.00;;;13.40;99.90;;;;;;5114407;28;20561;-56
2022/09/24 00:48:57;;;;;;;11.90;8.43;;;13.40;99.90;;;;;;5112639;28;20431;-56
2022/09/24 00:51:26;;;;;;;12.57;9.10;;;13.40;99.90;;;;;;5115015;28;20462;-56
2022/09/24 00:53:56;;;;;;;10.60;9.03;;;13.50;99.90;;;;;;5113861;28;21112;-56
2022/09/24 00:56:24;;;;;;;10.40;8.43;;;13.50;99.90;;;;;;5112869;28;20438;-56
2022/09/24 00:58:55;;;;;;;10.90;9.80;;;13.50;99.90;;;;;;5114688;28;20451;-56
2022/09/24 01:01:25;;;;;;;9.93;9.03;;;13.50;99.90;;;;;;5113601;28;20489;-56
2022/09/24 01:03:56;;;;;;;11.37;9.17;;;13.40;99.90;;;;;;5112857;28;20455;-56
2022/09/24 01:06:24;;;;;;;9.80;8.90;;;13.20;99.90;;;;;;5113815;28;20442;-56
2022/09/24 01:08:51;;;;;;;11.43;8.80;;;13.10;99.90;;;;;;5114361;28;20445;-56
2022/09/24 01:11:41;;;;;;;9.93;8.80;;;13.10;99.90;;;;;;5112158;28;20459;-56
2022/09/24 01:14:33;;;;;;;12.50;10.00;;;13.10;99.90;;;;;;5114170;28;20451;-56
2022/09/24 01:17:14;;;;;;;13.13;10.10;;;13.00;99.90;;;;;;5113334;28;20450;-56
2022/09/24 01:20:02;;;;;;;12.23;8.20;;;13.00;99.90;;;;;;5111207;28;20431;-56
2022/09/24 01:22:40;;;;;;;10.50;8.10;;;13.10;99.90;;;;;;5113965;28;20509;-56
2022/09/24 01:25:19;;;;;;;13.13;8.70;;;13.20;99.90;;;;;;5111868;28;20539;-56
2022/09/24 01:28:03;;;;;;;9.03;8.20;;;13.20;99.90;;;;;;5094922;28;20443;-57
2022/09/24 01:30:37;;;;;;;12.00;9.17;;;13.20;99.90;;;;;;5095384;28;20455;-57
2022/09/24 01:33:07;;;;;;;9.77;8.87;;;13.20;99.90;;;;;;5111443;28;20466;-56
2022/09/24 01:35:38;;;;;;;8.93;8.07;;;13.10;99.90;;;;;;5113506;28;20446;-56
2022/09/24 01:38:09;;;;;;;10.17;9.17;;;13.00;99.90;;;;;;5113608;28;20433;-56
2022/09/24 01:40:38;;;;;;;10.67;9.57;;;13.00;99.90;;;;;;5109677;28;20431;-56
2022/09/24 01:43:07;;;;;;;11.00;8.93;;;13.10;99.90;;;;;;5113535;28;20471;-56
2022/09/24 01:45:38;;;;;;;11.07;9.53;;;13.10;99.90;;;;;;5104857;28;20447;-56
2022/09/24 01:48:05;;;;;;;11.30;8.73;;;13.10;99.90;;;;;;5102870;28;20478;-57
2022/09/24 01:50:40;;;;;;;8.80;8.00;;;13.20;99.90;;;;;;5111894;28;20483;-56
2022/09/24 01:53:12;;;;;;;10.50;9.27;;;13.10;99.90;;;;;;5113344;28;20462;-56
2022/09/24 01:55:49;;;;;;;9.67;8.77;;;12.90;99.90;;;;;;5108429;28;20439;-56
2022/09/24 01:58:21;;;;;;;12.90;9.57;;;12.80;99.90;;;;;;5105393;28;20469;-56
2022/09/24 02:00:53;;;;;;;9.23;8.33;;;12.80;99.90;;;;;;5111383;28;20942;-56
2022/09/24 02:03:25;;;;;;;9.67;8.67;;;12.90;99.90;;;;;;5109616;28;20442;-56
2022/09/24 02:05:57;;;;;;;13.77;9.30;;;12.80;99.90;;;;;;5104583;28;20442;-56
2022/09/24 02:08:28;;;;;;;10.47;9.37;;;12.60;99.90;;;;;;5110012;28;20527;-56
2022/09/24 02:11:05;;;;;;;9.33;8.50;;;12.50;99.90;;;;;;5110942;28;20445;-56
2022/09/24 02:13:38;;;;;;;12.13;9.70;;;12.50;99.90;;;;;;5108796;28;20459;-56
2022/09/24 02:16:09;;;;;;;15.40;8.50;;;12.60;99.90;;;;;;5099658;28;20431;-56
2022/09/24 02:18:39;;;;;;;10.50;9.40;;;12.70;99.90;;;;;;5109603;28;20637;-56
2022/09/24 02:21:10;;;;;;;11.67;9.80;;;12.70;99.90;;;;;;5110861;28;20443;-56
2022/09/24 02:23:40;;;;;;;10.70;9.70;;;12.80;99.90;;;;;;5105480;28;20457;-56
2022/09/24 02:26:07;;;;;;;11.03;9.80;;;12.80;99.90;;;;;;5092114;28;20526;-56
2022/09/24 02:28:35;;;;;;;9.70;8.80;;;12.70;99.90;;;;;;5112661;28;20458;-56
2022/09/24 02:31:08;;;;;;;11.00;9.97;;;12.60;99.90;;;;;;5110315;28;20460;-56
2022/09/24 02:36:23;;;;;;;10.17;9.10;;;12.50;99.90;;;;;;5092443;28;20478;-56
2022/09/24 02:38:51;;;;;;;10.67;9.57;;;12.70;99.90;;;;;;5090169;28;20467;-56
2022/09/24 02:41:22;;;;;;;12.03;9.90;;;12.80;99.90;;;;;;5098562;28;20565;-56
2022/09/24 02:43:50;;;;;;;10.97;9.97;;;12.80;99.90;;;;;;5100334;28;20459;-56
2022/09/24 02:46:18;;;;;;;9.47;8.57;;;12.80;99.90;;;;;;5089229;28;20443;-56
2022/09/24 02:48:46;;;;;;;12.73;10.40;;;12.70;99.90;;;;;;5053559;28;20811;-56
2022/09/24 02:51:13;;;;;;;10.40;9.43;;;12.60;99.90;;;;;;5063082;28;20508;-56
2022/09/24 02:53:40;;;;;;;12.83;11.37;;;12.60;99.90;;;;;;5067098;28;20481;-56
2022/09/24 02:56:07;;;;;;;10.90;9.27;;;12.60;99.90;;;;;;5071988;28;20448;-56
2022/09/24 02:58:36;;;;;;;11.30;9.90;;;12.60;99.90;;;;;;5071618;28;20454;-56
2022/09/24 03:01:04;;;;;;;10.27;9.30;;;12.70;99.90;;;;;;5069544;28;20475;-56
2022/09/24 03:03:33;;;;;;;10.47;9.50;;;12.70;99.90;;;;;;5071424;28;20448;-56
2022/09/24 03:06:00;;;;;;;12.37;11.03;;;12.70;99.90;;;;;;5070996;28;20451;-56
2022/09/24 03:08:29;;;;;;;11.10;9.93;;;12.80;99.90;;;;;;5069686;28;20459;-56
2022/09/24 03:10:56;;;;;;;11.77;10.67;;;12.80;99.90;;;;;;5071309;28;20943;-56
2022/09/24 03:13:23;;;;;;;11.70;10.50;;;12.90;99.90;;;;;;5071320;28;20458;-56
2022/09/24 03:15:50;;;;;;;10.90;9.90;;;12.90;99.90;;;;;;5070002;28;20834;-56
2022/09/24 03:18:17;;;;;;;12.50;10.10;;;13.00;99.90;;;;;;5071024;28;20485;-56
2022/09/24 03:20:55;;;;;;;11.50;10.40;;;13.00;99.90;;;;;;5070218;28;20448;-56
2022/09/24 03:23:22;;;;;;;11.43;10.40;;;13.10;99.90;;;;;;5069517;28;20476;-56
2022/09/24 03:25:49;;;;;;;12.67;10.53;;;13.00;99.90;;;;;;5071551;28;20451;-56
2022/09/24 03:28:17;;;;;;;11.53;10.53;;;12.90;99.90;;;;;;5070711;28;20819;-56
2022/09/24 03:31:00;;;;;;;13.37;11.07;;;13.00;99.90;;;;;;5069412;28;20448;-56
2022/09/24 03:33:28;;;;;;;12.37;11.10;;;13.00;99.90;;;;;;5071875;28;20439;-56
2022/09/24 03:35:58;;;;;;;11.60;10.30;;;13.00;99.90;;;;;;5072059;28;20470;-56
2022/09/24 03:38:25;;;;;;;14.60;10.77;;;13.00;99.90;;;;;;5054522;28;20489;-57
2022/09/24 03:40:52;;;;;;;11.97;10.33;;;13.00;99.90;;;;;;5050552;28;20950;-56
2022/09/24 03:43:20;;;;;;;12.30;11.00;;;13.00;99.90;;;;;;5051974;28;20485;-56
2022/09/24 03:45:48;;;;;;;13.33;12.03;;;13.10;99.90;;;;;;5055550;28;20442;-56
2022/09/24 03:48:15;;;;;;;12.13;10.73;;;13.10;99.90;;;;;;5083089;28;20474;-56
2022/09/24 03:50:42;;;;;;;15.37;11.07;;;13.00;99.90;;;;;;5091916;28;20443;-56
2022/09/24 03:53:11;;;;;;;12.17;10.87;;;13.00;99.90;;;;;;5089560;28;20502;-56
2022/09/24 03:55:43;;;;;;;15.93;11.47;;;13.10;99.90;;;;;;5090806;28;20491;-56
2022/09/24 03:58:11;;;;;;;12.70;11.40;;;13.10;99.90;;;;;;5091529;28;20439;-56
2022/09/24 04:00:39;;;;;;;13.63;9.97;;;13.10;99.90;;;;;;5088975;28;20454;-56
2022/09/24 04:03:06;;;;;;;13.97;10.03;;;12.90;99.90;;;;;;5091213;28;20479;-56
2022/09/24 04:05:33;;;;;;;12.40;11.10;;;12.90;99.90;;;;;;5095193;28;20447;-56
2022/09/24 04:08:01;;;;;;;13.67;11.87;;;13.00;99.90;;;;;;5104535;28;20454;-56
2022/09/24 04:10:30;;;;;;;18.70;11.50;;;13.10;99.90;;;;;;5094775;28;20447;-56
2022/09/24 04:12:57;;;;;;;14.07;12.77;;;13.10;99.90;;;;;;5095006;28;21036;-56
2022/09/24 04:15:24;;;;;;;12.93;11.77;;;13.00;99.90;;;;;;5093337;28;20438;-56
2022/09/24 04:17:52;;;;;;;12.67;11.10;;;13.10;99.90;;;;;;5094567;28;20445;-56
2022/09/24 04:20:21;;;;;;;12.43;11.20;;;13.10;99.90;;;;;;5094480;28;20447;-56
2022/09/24 04:22:49;;;;;;;13.13;11.90;;;13.10;99.90;;;;;;5092472;28;20915;-56
2022/09/24 04:25:17;;;;;;;13.73;12.40;;;13.10;99.90;;;;;;5098437;28;20457;-56
2022/09/24 04:27:45;;;;;;;11.63;10.60;;;13.10;99.90;;;;;;5113455;28;20438;-56
2022/09/24 04:36:24;;;;;;;20.90;11.67;;;13.00;99.90;;;;;;5005301;28;20451;-56
2022/09/24 04:39:05;;;;;;;11.17;10.17;;;13.20;99.90;;;;;;5082659;28;20459;-56
2022/09/24 04:41:35;;;;;;;11.60;10.40;;;13.20;99.90;;;;;;5094543;28;20493;-56
2022/09/24 04:44:04;;;;;;;12.60;11.30;;;13.30;99.90;;;;;;5094006;28;20786;-56
2022/09/24 04:46:33;;;;;;;12.37;11.27;;;13.30;99.90;;;;;;5092129;28;20427;-56
2022/09/24 04:49:00;;;;;;;11.97;10.77;;;13.30;99.90;;;;;;5094717;28;20428;-56
2022/09/24 04:51:27;;;;;;;12.97;11.60;;;13.30;99.90;;;;;;5093519;28;20482;-56
2022/09/24 04:53:54;;;;;;;11.77;10.60;;;13.10;99.90;;;;;;5092630;28;20526;-56
2022/09/24 04:56:21;;;;;;;11.47;10.30;;;13.00;99.90;;;;;;5094217;28;20458;-56
2022/09/24 04:58:51;;;;;;;11.17;10.07;;;13.00;99.90;;;;;;5094398;28;20526;-56
2022/09/24 05:01:20;;;;;;;11.63;10.53;;;13.10;99.90;;;;;;5091904;28;20804;-56
2022/09/24 05:03:47;;;;;;;11.37;9.70;;;13.20;99.90;;;;;;5094057;28;20536;-56
2022/09/24 05:06:14;;;;;;;14.03;11.40;;;13.10;99.90;;;;;;5093790;28;20454;-57
2022/09/24 05:08:42;;;;;;;15.33;10.97;;;13.00;99.90;;;;;;5101993;28;20451;-56
2022/09/24 05:11:09;;;;;;;13.93;12.00;;;13.00;99.90;;;;;;5114443;28;20518;-57
2022/09/24 05:13:36;;;;;;;12.00;10.90;;;13.00;99.90;;;;;;5114187;28;20823;-57
2022/09/24 05:16:03;;;;;;;12.20;10.90;;;13.00;99.90;;;;;;5109223;28;20812;-57
2022/09/24 05:18:32;;;;;;;12.53;11.33;;;13.00;99.90;;;;;;5113974;28;20453;-57
2022/09/24 05:21:00;;;;;;;13.07;11.77;;;12.90;99.90;;;;;;5112632;28;20454;-57
2022/09/24 05:23:27;;;;;;;11.87;10.90;;;12.90;99.90;;;;;;5102610;28;20477;-56
2022/09/24 05:28:51;;;;;;;12.17;10.90;;;13.10;99.90;;;;;;5063668;28;20506;-57
2022/09/24 05:31:19;;;;;;;13.80;11.60;;;13.10;99.90;;;;;;5096092;28;20470;-57
2022/09/24 05:33:48;;;;;;;16.93;11.53;;;13.20;99.90;;;;;;5105439;28;20477;-57
2022/09/24 05:36:15;;;;;;;12.23;11.03;;;13.20;99.90;;;;;;5111175;28;20496;-56
2022/09/24 05:38:42;;;;;;;12.93;11.33;;;13.30;99.90;;;;;;5109670;28;20446;-57
2022/09/24 05:41:09;;;;;;;13.17;11.00;;;13.30;99.90;;;;;;5108516;28;20497;-56
2022/09/24 05:43:36;;;;;;;13.40;11.17;;;13.20;99.90;;;;;;5110176;28;20535;-57
2022/09/24 05:46:04;;;;;;;11.50;10.40;;;13.30;99.90;;;;;;5107811;28;20446;-57
2022/09/24 05:55:37;;;;;;;11.67;10.47;;;13.30;99.90;;;;;;5039267;28;20502;-55
2022/09/24 05:58:11;;;;;;;11.90;10.70;;;13.30;99.90;;;;;;5071464;28;20632;-55
2022/09/24 06:00:38;;;;;;;13.23;10.47;;;13.30;99.90;;;;;;5068838;28;20428;-55
2022/09/24 06:03:07;;;;;;;13.20;11.40;;;13.20;99.90;;;;;;5071038;28;20491;-56
2022/09/24 06:05:35;;;;;;;12.37;11.20;;;13.20;99.90;;;;;;5071092;28;20444;-55
2022/09/24 06:08:02;;;;;;;12.43;11.13;;;13.30;99.90;;;;;;5068790;28;20453;-56
2022/09/24 06:10:29;;;;;;;13.77;11.87;;;13.40;99.90;;;;;;5069936;28;20461;-57
2022/09/24 06:12:58;;;;;;;13.13;11.40;;;13.50;99.90;;;;;;5069988;28;21037;-57
2022/09/24 06:15:26;;;;;;;13.60;12.20;;;13.50;99.90;;;;;;5067610;28;20440;-57
2022/09/24 06:17:54;;;;;;;12.97;11.50;;;13.50;99.90;;;;;;5070023;28;20450;-57
2022/09/24 06:20:22;;;;;;;14.33;11.60;;;13.60;99.90;;;;;;5069415;28;20448;-57
2022/09/24 06:22:49;;;;;;;13.37;12.07;;;13.60;99.90;;;;;;5067240;28;21077;-57
2022/09/24 06:25:16;;;;;;;11.93;10.90;;;13.50;99.90;;;;;;5069508;28;20451;-57
2022/09/24 06:27:54;;;;;;;11.30;10.20;;;13.60;99.90;;;;;;5068611;28;20862;-57
2022/09/24 06:30:23;;;;;;;16.47;11.27;;;13.60;99.90;;;;;;5067214;28;20515;-57
2022/09/24 06:33:15;;;;;;;14.20;11.50;;;13.60;99.90;;;;;;5069380;28;20847;-57
2022/09/24 06:35:44;;;;;;;12.20;11.00;;;13.50;99.90;;;;;;5052348;28;20446;-57
2022/09/24 06:38:13;;;;;;;13.93;12.73;;;13.60;99.90;;;;;;5045538;28;21007;-57
2022/09/24 06:40:41;;;;;;;15.20;10.40;;;13.60;99.90;;;;;;5060066;28;20448;-56
2022/09/24 06:43:09;;;;;;;13.70;10.70;;;13.70;99.90;;;;;;5066502;28;20488;-57
2022/09/24 06:45:38;;;;;;;11.63;10.20;;;13.90;99.90;;;;;;5069729;28;20452;-57
2022/09/24 06:48:06;;;;;;;12.60;11.30;;;13.80;99.90;;;;;;5069025;28;21113;-57
2022/09/24 06:50:34;;;;;;;13.00;11.40;;;13.90;99.90;;;;;;5067001;28;20444;-57
2022/09/24 06:53:05;;;;;;;12.70;11.27;;;14.00;99.90;;;;;;5069661;28;20826;-57
2022/09/24 06:55:32;;;;;;;12.10;11.10;;;14.00;99.90;;;;;;5068891;28;20424;-58
2022/09/24 06:58:03;;;;;;;13.17;11.53;;;14.10;99.90;;;;;;5066988;28;20764;-58
2022/09/24 07:00:31;;;;;;;14.83;11.93;;;14.00;99.90;;;;;;5069262;28;20452;-58
2022/09/24 07:02:59;;;;;;;12.03;10.90;;;14.10;99.90;;;;;;5069102;28;20519;-57
2022/09/24 07:05:26;;;;;;;12.20;11.00;;;14.10;99.90;;;;;;5066398;28;20471;-60
2022/09/24 07:07:53;;;;;;;11.27;10.23;;;14.10;99.90;;;;;;5069398;28;20451;-57
2022/09/24 07:10:23;;;;;;;11.63;9.73;;;14.20;99.90;;;;;;5068897;28;20864;-57
2022/09/24 07:12:50;;;;;;;14.63;10.80;;;14.30;99.90;;;;;;5066281;28;20481;-58
2022/09/24 07:15:18;;;;;;;12.50;10.50;;;14.40;99.90;;;;;;5068769;28;20464;-57
2022/09/24 07:17:45;;;;;;;11.27;10.10;;;14.40;99.90;;;;;;5068760;28;20483;-57
2022/09/24 07:20:13;;;;;;;12.37;10.53;;;14.50;99.90;;;;;;5066535;28;20452;-57
2022/09/24 07:22:42;;;;;;;14.30;11.50;;;14.60;99.90;;;;;;5066822;28;20471;-57
2022/09/24 07:25:11;;;;;;;12.50;10.20;;;14.60;99.90;;;;;;5068820;28;20432;-57
2022/09/24 07:27:39;;;;;;;10.37;9.30;;;14.60;99.90;;;;;;5054936;28;20453;-62
2022/09/24 07:30:08;;;;;;;9.93;7.37;;;14.70;99.90;;;;;;5050731;28;20488;-55
2022/09/24 07:32:36;;;;;;;9.30;8.50;;;15.60;99.90;;;;;;5053216;28;21002;-52
2022/09/24 07:35:03;;;;;;;6.23;5.63;;;16.60;99.90;;;;;;5047967;28;21058;-54
2022/09/24 07:37:32;;;;;;;6.73;6.13;;;17.10;99.90;;;;;;5051399;28;20484;-52
2022/09/24 07:39:59;;;;;;;9.27;6.20;;;17.80;99.90;;;;;;5070610;28;20957;-51
2022/09/24 07:42:27;;;;;;;9.43;7.30;;;18.30;99.90;;;;;;5061512;28;20479;-55
2022/09/24 07:44:55;;;;;;;7.07;6.47;;;18.50;99.90;;;;;;5048033;28;21781;-54
2022/09/24 07:47:22;;;;;;;7.07;6.30;;;18.80;99.90;;;;;;5050806;28;20574;-54
2022/09/24 07:49:49;;;;;;;5.47;4.97;;;19.00;99.90;;;;;;5050841;28;20465;-54
2022/09/24 07:52:17;;;;;;;8.97;5.37;;;19.40;99.90;;;;;;5052014;28;20485;-57
2022/09/24 07:54:47;;;;;;;8.20;6.83;;;19.50;99.90;;;;;;5056586;28;20479;-53
2022/09/24 07:57:16;;;;;;;9.97;6.67;;;19.50;99.90;;;;;;5053454;28;20532;-54
2022/09/24 07:59:44;;;;;;;16.53;10.07;;;19.30;99.90;;;;;;5051956;28;20445;-54
2022/09/24 08:02:16;;;;;;;8.93;7.57;;;19.00;99.90;;;;;;5056368;28;20475;-52
2022/09/24 08:04:44;;;;;;;10.63;8.93;;;18.40;99.90;;;;;;5053219;28;20908;-50
2022/09/24 08:07:11;;;;;;;10.73;9.63;;;18.20;99.90;;;;;;5053959;28;20518;-56
2022/09/24 08:09:38;;;;;;;10.20;9.33;;;17.60;99.90;;;;;;5053049;28;20663;-57
2022/09/24 08:12:08;;;;;;;10.63;9.63;;;17.00;99.90;;;;;;5049314;28;20484;-60
2022/09/24 08:14:35;;;;;;;10.00;9.10;;;17.10;99.90;;;;;;5060070;28;20452;-54
2022/09/24 08:17:02;;;;;;;15.13;9.17;;;17.20;99.90;;;;;;5056994;28;20459;-57
2022/09/24 08:19:32;;;;;;;11.20;10.10;;;17.00;99.90;;;;;;5054543;28;20520;-56
2022/09/24 08:21:59;;;;;;;17.10;8.93;;;16.70;99.90;;;;;;5054412;28;21283;-59
2022/09/24 08:24:26;;;;;;;10.40;9.40;;;16.90;99.90;;;;;;5048599;28;20479;-60
2022/09/24 08:26:53;;;;;;;10.53;9.53;;;17.40;99.90;;;;;;5043814;28;20490;-51
2022/09/24 08:29:21;;;;;;;10.70;9.63;;;16.70;99.90;;;;;;5046490;28;20471;-58
2022/09/24 08:31:49;;;;;;;10.37;9.33;;;16.20;99.90;;;;;;5048635;28;20476;-61
2022/09/24 08:34:16;;;;;;;10.03;9.07;;;16.20;99.90;;;;;;5058847;28;20464;-63
2022/09/24 08:36:44;;;;;;;11.20;10.20;;;16.30;99.90;;;;;;5057511;28;20480;-56
2022/09/24 08:39:12;;;;;;;11.17;10.00;;;16.50;99.90;;;;;;5054835;28;20984;-61
2022/09/24 08:41:55;;;;;;;11.00;9.90;;;16.90;99.90;;;;;;5055692;28;20567;-60
2022/09/24 08:47:24;;;;;;;15.17;9.40;;;17.40;99.90;;;;;;5058531;28;20562;-57
2022/09/24 08:49:58;;;;;;;14.13;9.30;;;17.30;99.90;;;;;;5060835;28;20451;-59
2022/09/24 08:52:45;;;;;;;10.80;9.80;;;17.70;99.90;;;;;;5053239;28;20472;-58
2022/09/24 08:55:20;;;;;;;9.80;8.80;;;18.10;99.90;;;;;;5061595;28;20441;-57
2022/09/24 08:57:55;;;;;;;9.90;8.50;;;18.50;99.90;;;;;;5054504;28;20553;-64
2022/09/24 09:00:25;;;;;;;9.80;8.80;;;18.50;99.90;;;;;;5059069;28;20452;-56
2022/09/24 09:03:01;;;;;;;9.50;8.53;;;18.00;99.90;;;;;;5054132;28;20484;-61
2022/09/24 09:05:47;;;;;;;9.20;8.40;;;17.60;99.90;;;;;;5049006;28;20871;-59
2022/09/24 09:08:23;;;;;;;9.00;8.20;;;18.00;99.90;;;;;;5034330;28;20791;-59
2022/09/24 09:11:01;;;;;;;8.73;7.80;;;17.70;99.90;;;;;;5053727;28;21077;-59
2022/09/24 09:13:32;;;;;;;7.17;6.47;;;17.60;99.90;;;;;;5048954;28;20499;-60
2022/09/24 09:16:05;;;;;;;10.10;9.10;;;17.80;99.90;;;;;;5054272;28;20464;-58
2022/09/24 09:18:37;;;;;;;10.03;7.10;;;17.70;99.90;;;;;;5054741;28;20460;-57
2022/09/24 09:21:17;;;;;;;10.50;7.90;;;17.40;99.90;;;;;;5051642;28;20675;-55
2022/09/24 09:23:49;;;;;;;8.93;7.10;;;17.20;99.90;;;;;;5055330;28;21435;-55
2022/09/24 09:26:19;;;;;;;8.90;6.33;;;17.50;99.90;;;;;;5058793;28;20471;-56
2022/09/24 09:28:47;;;;;;;7.43;6.27;;;17.80;99.90;;;;;;5051302;28;20480;-59
2022/09/24 09:31:27;;;;;;;29.00;15.17;;;17.70;99.90;;;;;;5059408;28;20484;-57
2022/09/24 09:34:14;;;;;;;4.83;4.33;;;18.00;99.90;;;;;;5061324;28;20940;-54
2022/09/24 09:37:02;;;;;;;4.00;3.63;;;17.50;99.90;;;;;;5056020;28;20511;-58
2022/09/24 09:39:48;;;;;;;4.60;4.03;;;16.90;99.90;;;;;;5056845;28;20889;-55
2022/09/24 09:42:27;;;;;;;4.43;4.03;;;16.60;99.90;;;;;;5056160;28;21021;-59
2022/09/24 09:44:55;;;;;;;6.23;5.43;;;16.20;99.90;;;;;;5061167;28;20496;-59
2022/09/24 09:47:41;;;;;;;4.37;3.50;;;16.40;99.90;;;;;;5053784;28;20575;-53
2022/09/24 09:50:24;;;;;;;4.50;3.90;;;16.90;99.90;;;;;;5054454;28;20602;-54
2022/09/24 09:52:52;;;;;;;4.43;4.03;;;16.60;99.90;;;;;;5058608;28;20483;-57
2022/09/24 09:55:25;;;;;;;14.23;8.90;;;16.90;99.90;;;;;;5057916;28;20848;-58
2022/09/24 09:58:09;;;;;;;34.23;17.33;;;17.30;99.90;;;;;;5047737;28;20472;-56
2022/09/24 10:00:37;;;;;;;24.77;11.50;;;18.00;99.90;;;;;;5063413;28;20456;-59
2022/09/24 10:03:05;;;;;;;30.87;14.10;;;18.70;99.90;;;;;;5049939;28;20481;-57
2022/09/24 10:05:33;;;;;;;37.50;18.30;;;18.00;99.90;;;;;;5054451;28;20495;-60
2022/09/24 10:08:01;;;;;;;4.57;4.17;;;18.30;99.90;;;;;;5048475;28;20469;-57
2022/09/24 10:10:29;;;;;;;4.37;3.97;;;17.90;99.90;;;;;;5054662;28;20582;-57
2022/09/24 10:13:08;;;;;;;16.40;8.80;;;17.50;99.90;;;;;;5051960;28;20511;-56
2022/09/24 10:15:40;;;;;;;11.33;8.60;;;17.70;99.90;;;;;;5052850;28;21102;-56
2022/09/24 10:18:15;;;;;;;10.47;6.90;;;18.20;99.90;;;;;;5051187;28;20484;-58
2022/09/24 10:20:51;;;;;;;4.67;4.27;;;18.70;99.90;;;;;;5054325;28;20495;-54
2022/09/24 10:23:23;;;;;;;5.13;4.10;;;17.90;99.90;;;;;;5052101;28;20458;-54
2022/09/24 10:26:07;;;;;;;4.93;3.70;;;18.00;99.90;;;;;;5053734;28;20457;-56
2022/09/24 10:31:25;;;;;;;16.50;9.57;;;18.00;99.90;;;;;;5053310;28;20513;-57
2022/09/24 10:33:57;;;;;;;38.50;21.47;;;17.60;99.90;;;;;;5050509;28;20464;-58
2022/09/24 10:36:26;;;;;;;21.73;13.00;;;17.60;99.90;;;;;;5049801;28;20456;-59
2022/09/24 10:39:03;;;;;;;15.77;9.60;;;17.80;99.90;;;;;;5042203;28;20856;-59
2022/09/24 10:41:31;;;;;;;23.60;10.63;;;18.20;99.90;;;;;;5047865;28;21257;-56
2022/09/24 10:44:03;;;;;;;15.90;8.60;;;18.80;99.90;;;;;;5049366;28;21034;-56
2022/09/24 10:46:58;;;;;;;15.60;7.00;;;19.50;99.90;;;;;;5053205;28;20536;-57
2022/09/24 10:49:44;;;;;;;6.20;4.30;;;19.80;99.90;;;;;;5046904;28;20953;-50
2022/09/24 10:52:30;;;;;;;6.63;4.90;;;19.60;99.90;;;;;;5044321;28;20485;-59
2022/09/24 10:55:07;;;;;;;4.97;4.60;;;19.10;99.90;;;;;;5052153;28;20818;-58
2022/09/24 10:57:43;;;;;;;11.13;6.20;;;18.40;99.90;;;;;;5048841;28;20449;-56
2022/09/24 11:00:15;;;;;;;6.90;5.30;;;18.70;99.90;;;;;;5047811;28;20452;-55
2022/09/24 11:03:09;;;;;;;9.10;5.33;;;19.20;99.90;;;;;;5051355;28;20476;-56
2022/09/24 11:05:44;;;;;;;4.93;4.43;;;18.80;99.90;;;;;;5053731;28;20472;-56
2022/09/24 11:08:20;;;;;;;4.70;4.30;;;17.60;99.90;;;;;;5058316;28;20574;-56
2022/09/24 11:11:14;;;;;;;4.33;3.93;;;17.40;99.90;;;;;;5055305;28;20531;-56
2022/09/24 11:13:50;;;;;;;4.30;3.90;;;17.20;99.90;;;;;;5045241;28;20468;-56
2022/09/24 11:16:37;;;;;;;4.50;4.10;;;17.10;99.90;;;;;;5044956;28;20437;-56
2022/09/24 11:19:14;;;;;;;4.27;3.87;;;17.20;99.90;;;;;;5046769;28;20456;-54
2022/09/24 11:22:14;;;;;;;4.27;3.90;;;17.10;99.90;;;;;;5050739;28;20469;-55
2022/09/24 11:25:08;;;;;;;4.87;4.47;;;16.80;99.90;;;;;;5007218;28;20945;-52
2022/09/24 11:27:48;;;;;;;6.40;4.00;;;16.90;99.90;;;;;;5041992;28;20544;-53
2022/09/24 11:30:19;;;;;;;4.40;4.00;;;16.70;99.90;;;;;;5052191;28;20541;-54
2022/09/24 11:33:01;;;;;;;4.80;4.30;;;16.60;99.90;;;;;;5051350;28;20480;-57
2022/09/24 11:35:42;;;;;;;3.80;3.50;;;16.60;99.90;;;;;;5044537;28;20449;-57
2022/09/24 11:38:16;;;;;;;4.60;4.00;;;16.70;99.90;;;;;;5053372;28;20499;-57
2022/09/24 11:41:04;;;;;;;4.63;4.20;;;16.90;99.90;;;;;;5059376;28;20448;-56
2022/09/24 11:44:12;;;;;;;4.07;3.67;;;16.50;99.90;;;;;;5054056;28;20480;-55
2022/09/24 11:46:54;;;;;;;3.90;3.60;;;17.00;99.90;;;;;;5050538;28;21070;-57
2022/09/24 11:49:44;;;;;;;4.10;3.70;;;17.30;99.90;;;;;;5043078;28;20464;-54
2022/09/24 11:52:16;;;;;;;4.77;4.00;;;17.60;99.90;;;;;;5052572;28;20570;-54
2022/09/24 11:54:52;;;;;;;3.90;3.60;;;18.20;99.90;;;;;;5048281;28;20796;-55
2022/09/24 11:57:26;;;;;;;5.03;4.30;;;17.80;99.90;;;;;;5053565;28;20457;-54
2022/09/24 11:59:59;;;;;;;5.70;4.20;;;16.80;99.90;;;;;;5046653;28;20528;-58
2022/09/24 12:02:30;;;;;;;4.43;3.93;;;16.90;99.90;;;;;;5055523;28;20861;-54
2022/09/24 12:05:05;;;;;;;7.13;4.03;;;17.00;99.90;;;;;;5051119;28;20476;-57
2022/09/24 12:07:39;;;;;;;5.57;5.10;;;16.90;99.90;;;;;;5052336;28;21286;-54
2022/09/24 12:10:28;;;;;;;8.17;4.70;;;16.80;99.90;;;;;;5046093;28;20430;-55
2022/09/24 12:13:03;;;;;;;4.43;4.03;;;17.00;99.90;;;;;;5051513;28;20908;-50
2022/09/24 12:15:49;;;;;;;5.50;4.60;;;17.40;99.90;;;;;;5053333;28;20455;-50
2022/09/24 12:18:22;;;;;;;4.53;4.13;;;17.70;99.90;;;;;;5046103;28;20460;-54
2022/09/24 12:20:53;;;;;;;5.83;3.87;;;18.20;99.90;;;;;;5049859;28;20457;-51
2022/09/24 12:23:26;;;;;;;4.57;4.17;;;18.80;99.90;;;;;;5061453;28;21229;-56
2022/09/24 12:25:58;;;;;;;6.77;4.27;;;19.20;99.90;;;;;;5058424;28;20480;-57
2022/09/24 12:34:12;;;;;;;5.27;3.90;;;19.40;99.90;;;;;;5062670;28;20419;-55
2022/09/24 12:36:55;;;;;;;5.00;3.90;;;19.80;99.90;;;;;;5066364;28;20456;-58
2022/09/24 12:39:42;;;;;;;5.50;3.87;;;19.40;99.90;;;;;;5067608;28;20512;-56
2022/09/24 12:42:20;;;;;;;4.73;3.60;;;19.10;99.90;;;;;;5066976;28;20466;-55
2022/09/24 12:45:08;;;;;;;4.33;3.33;;;18.90;99.90;;;;;;5069462;28;20897;-55
2022/09/24 12:47:51;;;;;;;5.70;3.77;;;19.40;99.90;;;;;;5052949;28;20730;-56
2022/09/24 12:50:26;;;;;;;5.20;4.70;;;19.70;99.90;;;;;;5071012;28;20453;-56
2022/09/24 12:52:57;;;;;;;5.23;4.60;;;19.80;99.90;;;;;;5071802;28;20475;-54
2022/09/24 12:55:27;;;;;;;5.17;4.70;;;19.10;99.90;;;;;;5069395;28;20958;-54
2022/09/24 12:58:01;;;;;;;5.13;4.70;;;18.60;99.90;;;;;;5072067;28;20480;-55
2022/09/24 13:00:41;;;;;;;5.30;4.90;;;18.30;99.90;;;;;;5071592;28;20444;-55
2022/09/24 13:03:33;;;;;;;4.90;4.50;;;18.20;99.90;;;;;;5069463;28;20488;-55
2022/09/24 13:06:01;;;;;;;6.50;5.90;;;18.20;99.90;;;;;;5072020;28;20491;-55
2022/09/24 13:08:36;;;;;;;5.47;4.87;;;18.30;99.90;;;;;;5070700;28;20451;-56
2022/09/24 13:11:24;;;;;;;5.63;5.00;;;18.20;99.90;;;;;;5068971;28;20447;-56
2022/09/24 13:14:02;;;;;;;5.60;5.10;;;18.00;99.90;;;;;;5069798;28;20436;-56
2022/09/24 13:16:30;;;;;;;5.70;5.30;;;17.80;99.90;;;;;;5070451;28;20428;-56
2022/09/24 13:19:01;;;;;;;5.77;5.17;;;17.70;99.90;;;;;;5069302;28;20550;-56
2022/09/24 13:21:30;;;;;;;6.80;6.20;;;17.60;99.90;;;;;;5071191;28;20472;-56
2022/09/24 13:23:58;;;;;;;6.30;5.43;;;17.40;99.90;;;;;;5071092;28;20457;-55
2022/09/24 13:26:32;;;;;;;6.27;5.37;;;17.30;99.90;;;;;;5069376;28;21004;-55
2022/09/24 13:29:02;;;;;;;6.20;5.33;;;17.00;99.90;;;;;;5072294;28;20856;-56
2022/09/24 13:34:25;;;;;;;6.53;4.93;;;16.90;99.90;;;;;;5068240;28;20441;-56
2022/09/24 13:37:03;;;;;;;8.50;4.90;;;16.90;99.90;;;;;;5070671;28;20424;-56
2022/09/24 13:39:36;;;;;;;6.00;5.30;;;16.80;99.90;;;;;;5069716;28;20437;-56